createdAt,value
2019-03-24T00:00:25.375Z,119.97
2019-03-24T00:02:55.165Z,105.52
2019-03-24T00:05:24.872Z,116.75
2019-03-24T00:07:56.777Z,118.25
2019-03-24T00:10:26.328Z,111.65
2019-03-24T00:12:56.223Z,102.82
2019-03-24T00:15:26.775Z,113.30
2019-03-24T00:17:56.672Z,112.90
2019-03-24T00:20:29.246Z,105.95
2019-03-24T00:22:59.069Z,96.00
2019-03-24T00:25:28.767Z,113.28
2019-03-24T00:27:58.990Z,117.82
2019-03-24T00:30:29.094Z,107.75
2019-03-24T00:32:58.814Z,111.03
2019-03-24T00:35:28.540Z,126.05
2019-03-24T00:37:58.819Z,116.15
2019-03-24T00:40:28.694Z,133.37
2019-03-24T00:42:58.530Z,121.28
2019-03-24T00:45:36.499Z,106.32
2019-03-24T00:47:59.830Z,98.85
2019-03-24T00:50:29.572Z,129.53
2019-03-24T00:52:59.359Z,120.20
2019-03-24T00:55:29.097Z,112.05
2019-03-24T00:57:58.818Z,105.60
2019-03-24T01:00:44.004Z,120.40
2019-03-24T01:03:14.756Z,100.05
2019-03-24T01:05:45.068Z,126.85
2019-03-24T01:08:15.169Z,89.28
2019-03-24T01:10:44.973Z,110.15
2019-03-24T01:13:15.735Z,110.35
2019-03-24T01:15:48.100Z,91.92
2019-03-24T01:18:17.084Z,96.22
2019-03-24T01:20:46.788Z,90.53
2019-03-24T01:23:16.758Z,105.97
2019-03-24T01:25:46.478Z,102.25
2019-03-24T01:28:16.280Z,109.70
2019-03-24T01:30:45.998Z,105.65
2019-03-24T01:33:15.718Z,108.70
2019-03-24T01:35:45.423Z,96.40
2019-03-24T01:38:15.116Z,92.42
2019-03-24T01:40:44.837Z,108.15
2019-03-24T01:43:14.513Z,113.45
2019-03-24T01:45:44.240Z,106.37
2019-03-24T01:48:14.438Z,91.08
2019-03-24T01:50:44.169Z,94.35
2019-03-24T01:53:14.195Z,92.70
2019-03-24T01:55:44.065Z,89.77
2019-03-24T01:58:13.851Z,82.53
2019-03-24T02:00:43.572Z,79.90
2019-03-24T02:03:13.259Z,87.88
2019-03-24T02:05:42.974Z,104.47
2019-03-24T02:08:12.752Z,102.82
2019-03-24T02:10:42.551Z,85.12
2019-03-24T02:13:12.350Z,86.47
2019-03-24T02:15:42.278Z,118.05
2019-03-24T02:18:12.345Z,114.03
2019-03-24T02:20:42.073Z,111.90
2019-03-24T02:23:12.182Z,105.90
2019-03-24T02:25:42.084Z,99.58
2019-03-24T02:28:11.875Z,93.72
2019-03-24T02:30:41.789Z,81.25
2019-03-24T02:33:12.013Z,86.87
2019-03-24T02:35:42.156Z,80.10
2019-03-24T02:38:12.059Z,87.50
2019-03-24T02:40:41.759Z,98.12
2019-03-24T02:43:11.471Z,100.10
2019-03-24T02:45:41.201Z,78.50
2019-03-24T02:48:10.891Z,88.27
2019-03-24T02:50:40.565Z,80.10
2019-03-24T02:53:10.278Z,95.85
2019-03-24T02:55:40.340Z,109.75
2019-03-24T02:58:10.082Z,109.05
2019-03-24T03:00:40.240Z,99.05
2019-03-24T03:03:09.998Z,93.03
2019-03-24T03:05:39.681Z,108.65
2019-03-24T03:08:09.565Z,116.50
2019-03-24T03:10:39.244Z,94.47
2019-03-24T03:13:08.990Z,87.12
2019-03-24T03:15:38.921Z,87.10
2019-03-24T03:18:08.667Z,92.42
2019-03-24T03:20:38.460Z,106.43
2019-03-24T03:23:08.161Z,92.75
2019-03-24T03:25:38.424Z,92.08
2019-03-24T03:28:08.470Z,82.35
2019-03-24T03:30:38.164Z,79.75
2019-03-24T03:33:08.057Z,101.45
2019-03-24T03:35:37.789Z,63.20
2019-03-24T03:38:07.494Z,79.82
2019-03-24T03:40:37.688Z,81.70
2019-03-24T03:43:07.716Z,102.32
2019-03-24T03:45:39.318Z,81.45
2019-03-24T03:48:09.215Z,93.42
2019-03-24T03:50:38.892Z,88.92
2019-03-24T03:53:08.625Z,88.55
2019-03-24T03:55:38.317Z,97.20
2019-03-24T03:58:08.012Z,81.05
2019-03-24T04:00:38.153Z,90.47
2019-03-24T04:03:08.117Z,87.33
2019-03-24T04:05:37.834Z,86.55
2019-03-24T04:08:07.686Z,77.50
2019-03-24T04:10:37.539Z,83.42
2019-03-24T04:13:07.308Z,93.17
2019-03-24T04:15:37.195Z,87.27
2019-03-24T04:18:06.952Z,89.58
2019-03-24T04:20:36.786Z,92.60
2019-03-24T04:23:06.567Z,90.57
2019-03-24T04:25:36.445Z,101.22
2019-03-24T04:28:06.338Z,79.00
2019-03-24T04:30:36.097Z,95.10
2019-03-24T04:33:05.772Z,100.15
2019-03-24T04:35:35.649Z,84.07
2019-03-24T04:38:05.349Z,100.67
2019-03-24T04:40:35.052Z,102.22
2019-03-24T04:43:05.020Z,88.85
2019-03-24T04:45:34.995Z,102.42
2019-03-24T04:48:05.087Z,97.10
2019-03-24T04:50:34.831Z,88.85
2019-03-24T04:53:04.525Z,104.55
2019-03-24T04:55:34.252Z,105.15
2019-03-24T04:58:03.925Z,96.32
2019-03-24T05:00:38.085Z,97.90
2019-03-24T05:03:07.771Z,109.90
2019-03-24T05:05:38.740Z,106.52
2019-03-24T05:08:09.866Z,108.00
2019-03-24T05:10:39.591Z,94.65
2019-03-24T05:13:09.543Z,85.77
2019-03-24T05:15:39.263Z,92.40
2019-03-24T05:18:08.958Z,110.15
2019-03-24T05:20:38.649Z,113.12
2019-03-24T05:23:08.361Z,98.45
2019-03-24T05:25:38.031Z,108.65
2019-03-24T05:28:08.004Z,108.25
2019-03-24T05:30:37.685Z,104.70
2019-03-24T05:33:07.512Z,96.05
2019-03-24T05:35:37.395Z,97.62
2019-03-24T05:38:07.115Z,105.03
2019-03-24T05:40:36.826Z,100.58
2019-03-24T05:43:06.852Z,96.55
2019-03-24T05:45:36.678Z,78.15
2019-03-24T05:48:06.400Z,90.20
2019-03-24T05:50:36.072Z,117.25
2019-03-24T05:53:05.809Z,91.28
2019-03-24T05:55:35.614Z,90.75
2019-03-24T05:58:05.302Z,99.15
2019-03-24T06:00:35.017Z,84.67
2019-03-24T06:03:04.722Z,98.72
2019-03-24T06:05:34.465Z,96.25
2019-03-24T06:08:04.400Z,80.42
2019-03-24T06:10:34.225Z,80.45
2019-03-24T06:13:03.930Z,93.42
2019-03-24T06:15:33.685Z,84.50
2019-03-24T06:18:03.406Z,83.67
2019-03-24T06:20:33.122Z,91.75
2019-03-24T06:23:02.792Z,88.17
2019-03-24T06:25:34.921Z,92.53
2019-03-24T06:28:04.052Z,92.37
2019-03-24T06:30:33.884Z,104.00
2019-03-24T06:33:03.614Z,67.27
2019-03-24T06:35:33.282Z,97.80
2019-03-24T06:38:03.010Z,75.67
2019-03-24T06:40:32.822Z,99.13
2019-03-24T06:43:02.688Z,85.38
2019-03-24T06:45:32.562Z,84.00
2019-03-24T06:48:02.228Z,82.00
2019-03-24T06:50:31.982Z,75.05
2019-03-24T06:53:01.800Z,85.10
2019-03-24T06:55:31.499Z,81.65
2019-03-24T06:58:01.168Z,78.10
2019-03-24T07:00:30.883Z,52.25
2019-03-24T07:03:00.580Z,84.40
2019-03-24T07:05:30.341Z,89.47
2019-03-24T07:08:00.076Z,91.67
2019-03-24T07:10:29.794Z,72.72
2019-03-24T07:12:59.488Z,89.70
2019-03-24T07:15:29.231Z,81.85
2019-03-24T07:18:08.177Z,77.30
2019-03-24T07:20:30.457Z,72.15
2019-03-24T07:23:00.593Z,74.95
2019-03-24T07:25:30.297Z,80.92
2019-03-24T07:27:59.996Z,83.20
2019-03-24T07:30:29.901Z,75.20
2019-03-24T07:32:59.590Z,76.95
2019-03-24T07:35:29.635Z,87.05
2019-03-24T07:37:59.471Z,82.37
2019-03-24T07:40:29.251Z,87.72
2019-03-24T07:42:58.954Z,84.32
2019-03-24T07:45:28.789Z,84.32
2019-03-24T07:47:58.618Z,86.65
2019-03-24T07:50:28.328Z,93.52
2019-03-24T07:52:58.058Z,92.57
2019-03-24T07:55:27.921Z,85.92
2019-03-24T07:57:57.644Z,92.08
2019-03-24T08:00:35.500Z,105.52
2019-03-24T08:03:05.307Z,91.60
2019-03-24T08:05:35.124Z,102.58
2019-03-24T08:08:05.137Z,108.97
2019-03-24T08:10:34.927Z,83.67
2019-03-24T08:13:04.951Z,105.55
2019-03-24T08:15:34.671Z,79.37
2019-03-24T08:18:04.481Z,103.32
2019-03-24T08:20:34.254Z,100.35
2019-03-24T08:23:04.285Z,93.78
2019-03-24T08:25:34.018Z,98.15
2019-03-24T08:28:03.946Z,90.00
2019-03-24T08:30:37.907Z,79.05
2019-03-24T08:33:07.847Z,73.07
2019-03-24T08:35:37.521Z,96.15
2019-03-24T08:38:07.550Z,76.25
2019-03-24T08:40:37.307Z,84.95
2019-03-24T08:43:06.983Z,89.25
2019-03-24T08:45:36.813Z,92.75
2019-03-24T08:48:06.617Z,80.28
2019-03-24T08:50:36.471Z,86.15
2019-03-24T08:53:06.627Z,82.85
2019-03-24T08:55:36.362Z,89.97
2019-03-24T08:58:06.099Z,92.97
2019-03-24T09:00:36.329Z,94.80
2019-03-24T09:03:06.078Z,84.87
2019-03-24T09:05:35.893Z,83.22
2019-03-24T09:08:05.748Z,91.78
2019-03-24T09:10:35.500Z,84.92
2019-03-24T09:13:05.553Z,86.67
2019-03-24T09:15:35.781Z,94.37
2019-03-24T09:18:05.685Z,97.27
2019-03-24T09:20:41.748Z,87.47
2019-03-24T09:23:07.132Z,90.30
2019-03-24T09:25:36.979Z,75.85
2019-03-24T09:28:09.154Z,85.42
2019-03-24T09:30:39.755Z,77.20
2019-03-24T09:33:09.493Z,85.15
2019-03-24T09:35:39.208Z,70.47
2019-03-24T09:38:08.895Z,75.65
2019-03-24T09:40:38.827Z,73.25
2019-03-24T09:43:08.714Z,81.92
2019-03-24T09:45:38.439Z,82.62
2019-03-24T09:48:08.523Z,83.95
2019-03-24T09:50:38.237Z,75.52
2019-03-24T09:53:08.100Z,83.82
2019-03-24T09:55:37.963Z,86.72
2019-03-24T09:58:07.718Z,82.12
2019-03-24T10:00:37.734Z,106.92
2019-03-24T10:03:07.462Z,80.77
2019-03-24T10:05:37.146Z,80.50
2019-03-24T10:08:07.071Z,78.17
2019-03-24T10:10:36.848Z,75.40
2019-03-24T10:13:06.553Z,61.60
2019-03-24T10:15:36.268Z,70.50
2019-03-24T10:18:06.435Z,81.67
2019-03-24T10:20:36.325Z,70.40
2019-03-24T10:23:06.373Z,87.12
2019-03-24T10:25:36.083Z,75.87
2019-03-24T10:28:06.297Z,79.95
2019-03-24T10:30:36.182Z,73.72
2019-03-24T10:33:05.899Z,75.83
2019-03-24T10:35:35.759Z,80.13
2019-03-24T10:38:05.559Z,73.30
2019-03-24T10:40:35.790Z,86.50
2019-03-24T10:43:05.655Z,79.23
2019-03-24T10:45:35.362Z,75.07
2019-03-24T10:48:05.178Z,70.33
2019-03-24T10:50:34.864Z,81.10
2019-03-24T10:53:04.839Z,82.90
2019-03-24T10:55:34.632Z,66.70
2019-03-24T10:58:04.674Z,69.67
2019-03-24T11:00:45.123Z,75.70
2019-03-24T11:03:14.953Z,78.47
2019-03-24T11:05:44.624Z,56.30
2019-03-24T11:08:14.340Z,61.13
2019-03-24T11:10:44.207Z,68.97
2019-03-24T11:13:13.944Z,68.07
2019-03-24T11:15:43.999Z,59.03
2019-03-24T11:18:14.113Z,68.57
2019-03-24T11:20:44.316Z,65.33
2019-03-24T11:23:14.303Z,73.93
2019-03-24T11:25:44.128Z,73.40
2019-03-24T11:28:13.903Z,68.97
2019-03-24T11:30:43.815Z,61.20
2019-03-24T11:33:13.507Z,71.03
2019-03-24T11:35:43.293Z,59.30
2019-03-24T11:38:13.146Z,68.40
2019-03-24T11:40:43.031Z,60.53
2019-03-24T11:43:12.830Z,58.20
2019-03-24T11:45:42.758Z,63.87
2019-03-24T11:48:12.640Z,57.80
2019-03-24T11:50:42.374Z,62.50
2019-03-24T11:53:12.076Z,60.33
2019-03-24T11:55:41.833Z,72.50
2019-03-24T11:58:11.552Z,63.60
2019-03-24T12:00:41.683Z,61.43
2019-03-24T12:03:11.370Z,52.97
2019-03-24T12:05:41.082Z,62.90
2019-03-24T12:08:10.803Z,57.43
2019-03-24T12:10:40.550Z,65.23
2019-03-24T12:13:10.261Z,61.37
2019-03-24T12:15:39.977Z,64.07
2019-03-24T12:18:09.990Z,60.67
2019-03-24T12:20:39.931Z,61.53
2019-03-24T12:23:10.403Z,64.77
2019-03-24T12:25:40.250Z,59.90
2019-03-24T12:28:09.989Z,64.17
2019-03-24T12:30:39.694Z,61.57
2019-03-24T12:33:09.427Z,57.90
2019-03-24T12:35:39.128Z,61.27
2019-03-24T12:38:08.996Z,56.43
2019-03-24T12:40:38.861Z,64.03
2019-03-24T12:43:18.666Z,61.03
2019-03-24T12:45:40.219Z,64.97
2019-03-24T12:48:10.169Z,56.00
2019-03-24T12:50:39.907Z,54.67
2019-03-24T12:53:09.623Z,55.07
2019-03-24T12:55:39.347Z,60.87
2019-03-24T12:58:09.351Z,58.33
2019-03-24T13:00:40.982Z,51.30
2019-03-24T13:03:10.736Z,52.90
2019-03-24T13:05:40.950Z,56.33
2019-03-24T13:08:14.966Z,54.20
2019-03-24T13:10:46.092Z,52.90
2019-03-24T13:13:16.480Z,57.43
2019-03-24T13:15:46.442Z,65.57
2019-03-24T13:18:16.384Z,57.80
2019-03-24T13:20:46.195Z,57.60
2019-03-24T13:23:16.122Z,54.10
2019-03-24T13:25:46.307Z,54.17
2019-03-24T13:28:16.081Z,56.03
2019-03-24T13:30:45.919Z,48.90
2019-03-24T13:33:15.636Z,58.93
2019-03-24T13:35:45.426Z,51.40
2019-03-24T13:38:15.502Z,58.87
2019-03-24T13:40:45.235Z,52.90
2019-03-24T13:43:15.079Z,63.33
2019-03-24T13:45:44.874Z,54.27
2019-03-24T13:48:14.588Z,58.57
2019-03-24T13:50:44.360Z,51.73
2019-03-24T13:53:14.174Z,59.30
2019-03-24T13:55:44.047Z,58.20
2019-03-24T13:58:14.027Z,59.47
2019-03-24T14:00:43.842Z,49.40
2019-03-24T14:03:13.560Z,58.60
2019-03-24T14:05:43.310Z,54.33
2019-03-24T14:08:13.164Z,58.07
2019-03-24T14:10:42.936Z,49.23
2019-03-24T14:13:12.647Z,61.17
2019-03-24T14:15:42.450Z,79.20
2019-03-24T14:18:12.263Z,51.43
2019-03-24T14:20:43.711Z,65.47
2019-03-24T14:23:13.657Z,48.50
2019-03-24T14:25:43.510Z,52.23
2019-03-24T14:28:13.406Z,66.43
2019-03-24T14:30:47.379Z,56.63
2019-03-24T14:33:17.498Z,55.43
2019-03-24T14:35:47.625Z,52.50
2019-03-24T14:38:17.370Z,55.60
2019-03-24T14:40:47.078Z,57.50
2019-03-24T14:43:16.924Z,56.80
2019-03-24T14:45:46.699Z,55.23
2019-03-24T14:48:16.430Z,53.50
2019-03-24T14:50:54.337Z,52.50
2019-03-24T14:53:17.602Z,52.73
2019-03-24T14:55:47.532Z,50.77
2019-03-24T14:58:17.229Z,57.73
2019-03-24T15:00:47.139Z,55.00
2019-03-24T15:03:16.836Z,51.17
2019-03-24T15:05:46.763Z,54.37
2019-03-24T15:08:16.577Z,56.60
2019-03-24T15:10:46.600Z,55.13
2019-03-24T15:13:16.386Z,50.27
2019-03-24T15:15:46.301Z,50.30
2019-03-24T15:18:16.319Z,52.10
2019-03-24T15:20:46.172Z,51.80
2019-03-24T15:23:15.993Z,52.80
2019-03-24T15:25:45.683Z,58.17
2019-03-24T15:28:15.530Z,57.43
2019-03-24T15:30:45.287Z,51.70
2019-03-24T15:33:15.017Z,60.60
2019-03-24T15:35:44.750Z,52.77
2019-03-24T15:38:15.059Z,60.53
2019-03-24T15:40:45.270Z,54.67
2019-03-24T15:43:15.011Z,57.57
2019-03-24T15:45:45.086Z,47.30
2019-03-24T15:48:14.844Z,52.60
2019-03-24T15:50:44.774Z,53.00
2019-03-24T15:53:14.543Z,57.80
2019-03-24T15:55:44.259Z,48.90
2019-03-24T15:58:14.102Z,52.97
2019-03-24T16:00:51.050Z,46.27
2019-03-24T16:03:20.819Z,51.73
2019-03-24T16:05:50.613Z,46.17
2019-03-24T16:08:20.411Z,49.07
2019-03-24T16:10:50.146Z,49.73
2019-03-24T16:13:19.866Z,49.43
2019-03-24T16:15:49.589Z,63.83
2019-03-24T16:18:19.301Z,58.03
2019-03-24T16:20:49.046Z,54.13
2019-03-24T16:23:18.878Z,63.73
2019-03-24T16:25:48.787Z,48.77
2019-03-24T16:28:18.587Z,54.10
2019-03-24T16:30:48.525Z,50.17
2019-03-24T16:33:18.297Z,50.90
2019-03-24T16:35:48.040Z,53.40
2019-03-24T16:38:17.786Z,54.08
2019-03-24T16:40:47.516Z,48.57
2019-03-24T16:43:17.337Z,47.47
2019-03-24T16:45:47.488Z,51.23
2019-03-24T16:48:17.126Z,54.90
2019-03-24T16:50:46.872Z,53.65
2019-03-24T16:53:16.748Z,48.70
2019-03-24T16:55:46.556Z,62.40
2019-03-24T16:58:16.356Z,51.63
2019-03-24T17:00:46.206Z,61.00
2019-03-24T17:03:15.902Z,47.90
2019-03-24T17:05:45.636Z,51.93
2019-03-24T17:08:15.362Z,51.33
2019-03-24T17:10:45.092Z,45.37
2019-03-24T17:13:15.099Z,47.00
2019-03-24T17:15:44.807Z,45.52
2019-03-24T17:18:14.547Z,50.37
2019-03-24T17:20:44.308Z,58.63
2019-03-24T17:23:14.031Z,43.55
2019-03-24T17:25:43.769Z,48.87
2019-03-24T17:28:13.461Z,54.07
2019-03-24T17:30:43.221Z,55.97
2019-03-24T17:33:12.949Z,54.77
2019-03-24T17:35:43.002Z,53.33
2019-03-24T17:38:12.758Z,50.87
2019-03-24T17:40:42.446Z,51.53
2019-03-24T17:43:12.203Z,53.17
2019-03-24T17:45:41.960Z,45.13
2019-03-24T17:48:11.737Z,50.95
2019-03-24T17:50:41.735Z,46.50
2019-03-24T17:53:11.470Z,44.53
2019-03-24T17:55:41.214Z,49.88
2019-03-24T17:58:11.099Z,43.45
2019-03-24T18:00:43.916Z,40.97
2019-03-24T18:03:13.770Z,49.50
2019-03-24T18:05:43.585Z,48.80
2019-03-24T18:08:13.446Z,50.67
2019-03-24T18:10:43.313Z,48.08
2019-03-24T18:13:13.073Z,49.18
2019-03-24T18:15:43.158Z,44.43
2019-03-24T18:18:12.911Z,43.52
2019-03-24T18:20:42.661Z,39.20
2019-03-24T18:23:12.487Z,41.35
2019-03-24T18:25:42.454Z,47.50
2019-03-24T18:28:12.275Z,48.52
2019-03-24T18:30:41.985Z,42.73
2019-03-24T18:33:11.795Z,48.57
2019-03-24T18:35:41.599Z,49.88
2019-03-24T18:38:11.455Z,44.10
2019-03-24T18:40:41.159Z,46.45
2019-03-24T18:43:11.138Z,44.70
2019-03-24T18:45:41.115Z,44.63
2019-03-24T18:48:10.847Z,45.67
2019-03-24T18:50:40.591Z,40.38
2019-03-24T18:53:10.420Z,45.43
2019-03-24T18:55:40.175Z,46.65
2019-03-24T18:58:09.895Z,48.65
2019-03-24T19:00:39.660Z,48.17
2019-03-24T19:03:09.407Z,44.48
2019-03-24T19:05:39.262Z,40.10
2019-03-24T19:08:08.996Z,37.28
2019-03-24T19:10:38.771Z,43.78
2019-03-24T19:13:08.854Z,48.40
2019-03-24T19:15:38.639Z,39.63
2019-03-24T19:18:08.973Z,114.35
2019-03-24T19:20:39.041Z,51.80
2019-03-24T19:23:08.861Z,41.37
2019-03-24T19:25:38.945Z,38.53
2019-03-24T19:28:08.674Z,41.00
2019-03-24T19:30:40.127Z,39.25
2019-03-24T19:33:10.099Z,41.68
2019-03-24T19:35:40.032Z,39.78
2019-03-24T19:38:10.035Z,33.88
2019-03-24T19:40:39.795Z,45.00
2019-03-24T19:43:09.757Z,45.83
2019-03-24T19:45:39.487Z,35.00
2019-03-24T19:48:09.334Z,37.58
2019-03-24T19:50:39.105Z,37.67
2019-03-24T19:53:09.171Z,42.55
2019-03-24T19:55:38.939Z,39.03
2019-03-24T19:58:08.987Z,38.15
2019-03-24T20:00:38.912Z,41.73
2019-03-24T20:03:08.871Z,36.57
2019-03-24T20:05:38.592Z,34.70
2019-03-24T20:08:08.881Z,37.33
2019-03-24T20:10:39.024Z,38.42
2019-03-24T20:13:09.194Z,35.03
2019-03-24T20:15:38.911Z,35.05
2019-03-24T20:18:08.636Z,32.38
2019-03-24T20:20:38.457Z,39.35
2019-03-24T20:23:08.259Z,38.85
2019-03-24T20:25:38.220Z,39.00
2019-03-24T20:28:08.270Z,28.27
2019-03-24T20:30:38.019Z,42.70
2019-03-24T20:33:07.951Z,29.57
2019-03-24T20:35:37.769Z,41.00
2019-03-24T20:38:07.616Z,33.48
2019-03-24T20:40:37.553Z,36.60
2019-03-24T20:43:07.300Z,34.92
2019-03-24T20:45:37.038Z,35.05
2019-03-24T20:48:07.145Z,37.35
2019-03-24T20:50:36.862Z,37.73
2019-03-24T20:53:17.623Z,40.35
2019-03-24T20:55:38.522Z,35.10
2019-03-24T20:58:08.511Z,28.32
2019-03-24T21:00:38.854Z,40.03
2019-03-24T21:03:09.120Z,40.80
2019-03-24T21:05:39.030Z,37.58
2019-03-24T21:08:09.072Z,35.88
2019-03-24T21:10:38.845Z,33.50
2019-03-24T21:13:08.736Z,32.45
2019-03-24T21:15:38.493Z,38.80
2019-03-24T21:18:08.190Z,36.33
2019-03-24T21:20:37.959Z,36.20
2019-03-24T21:23:07.956Z,34.08
2019-03-24T21:25:38.465Z,31.77
2019-03-24T21:28:08.327Z,26.17
2019-03-24T21:30:39.545Z,23.27
2019-03-24T21:33:09.255Z,20.40
2019-03-24T21:35:39.432Z,24.27
2019-03-24T21:38:09.442Z,20.25
2019-03-24T21:40:39.401Z,21.15
2019-03-24T21:43:09.603Z,24.77
2019-03-24T21:45:39.517Z,22.20
2019-03-24T21:48:09.294Z,22.67
2019-03-24T21:50:39.045Z,26.30
2019-03-24T21:53:09.192Z,25.97
2019-03-24T21:55:38.944Z,26.50
2019-03-24T21:58:08.791Z,24.70
2019-03-24T22:04:15.998Z,24.40
2019-03-24T22:06:45.712Z,25.82
2019-03-24T22:09:15.411Z,25.48
2019-03-24T22:11:45.562Z,33.13
2019-03-24T22:14:15.629Z,27.07
2019-03-24T22:16:45.435Z,28.90
2019-03-24T22:19:15.185Z,35.68
2019-03-24T22:21:44.894Z,36.77
2019-03-24T22:24:14.673Z,35.85
2019-03-24T22:26:44.386Z,38.13
2019-03-24T22:29:14.113Z,32.80
2019-03-24T22:31:43.873Z,33.35
2019-03-24T22:34:13.827Z,31.23
2019-03-24T22:36:43.588Z,29.95
2019-03-24T22:39:13.281Z,30.50
2019-03-24T22:41:43.942Z,29.45
2019-03-24T22:44:13.820Z,28.50
2019-03-24T22:46:43.540Z,29.10
2019-03-24T22:49:13.325Z,31.70
2019-03-24T22:51:43.063Z,30.77
2019-03-24T22:54:12.949Z,32.17
2019-03-24T22:56:42.703Z,31.45
2019-03-24T22:59:12.826Z,31.07
2019-03-24T23:01:43.244Z,32.65
2019-03-24T23:04:13.018Z,34.08
2019-03-24T23:06:42.810Z,30.50
2019-03-24T23:09:12.620Z,28.67
2019-03-24T23:11:42.447Z,22.85
2019-03-24T23:14:12.237Z,24.90
2019-03-24T23:16:41.989Z,21.25
2019-03-24T23:19:11.716Z,25.85
2019-03-24T23:21:41.709Z,23.25
2019-03-24T23:24:15.679Z,27.00
2019-03-24T23:26:43.047Z,22.70
2019-03-24T23:29:12.909Z,23.30
2019-03-24T23:31:42.639Z,22.17
2019-03-24T23:34:13.227Z,24.82
2019-03-24T23:36:42.921Z,20.82
2019-03-24T23:39:12.631Z,22.67
2019-03-24T23:41:42.369Z,21.30
2019-03-24T23:44:12.045Z,22.87
2019-03-24T23:46:41.790Z,20.80
2019-03-24T23:49:11.588Z,22.22
2019-03-24T23:51:41.527Z,18.40
2019-03-24T23:54:11.232Z,20.82
2019-03-24T23:56:40.964Z,13.95
2019-03-24T23:59:10.665Z,19.07
